sensor_id;sensor_type;location;lat;lon;timestamp;pressure;altitude;pressure_sealevel;temperature;humidity
24858;BME280;12935;50.782;6.074;2023-03-15T00:00:43;99128.91;;;2.12;100.00
24858;BME280;12935;50.782;6.074;2023-03-15T00:03:09;99131.94;;;2.10;100.00
24858;BME280;12935;50.782;6.074;2023-03-15T00:05:35;99130.28;;;2.06;100.00
24858;BME280;12935;50.782;6.074;2023-03-15T00:08:00;99130.38;;;2.09;100.00
24858;BME280;12935;50.782;6.074;2023-03-15T00:10:26;99128.34;;;2.06;100.00
24858;BME280;12935;50.782;6.074;2023-03-15T00:12:52;99138.00;;;2.07;100.00
24858;BME280;12935;50.782;6.074;2023-03-15T00:15:17;99122.63;;;2.24;100.00
24858;BME280;12935;50.782;6.074;2023-03-15T00:17:42;99131.06;;;2.38;100.00
24858;BME280;12935;50.782;6.074;2023-03-15T00:20:09;99132.47;;;2.47;100.00
24858;BME280;12935;50.782;6.074;2023-03-15T00:22:35;99120.56;;;2.49;100.00
24858;BME280;12935;50.782;6.074;2023-03-15T00:25:00;99127.34;;;2.42;100.00
24858;BME280;12935;50.782;6.074;2023-03-15T00:27:26;99127.78;;;2.60;100.00
24858;BME280;12935;50.782;6.074;2023-03-15T00:29:51;99140.28;;;2.68;100.00
24858;BME280;12935;50.782;6.074;2023-03-15T00:32:16;99133.53;;;2.59;100.00
24858;BME280;12935;50.782;6.074;2023-03-15T00:34:41;99125.50;;;2.62;100.00
24858;BME280;12935;50.782;6.074;2023-03-15T00:37:16;99134.41;;;2.47;100.00
24858;BME280;12935;50.782;6.074;2023-03-15T00:39:44;99133.25;;;2.64;100.00
24858;BME280;12935;50.782;6.074;2023-03-15T00:42:10;99134.47;;;2.66;100.00
24858;BME280;12935;50.782;6.074;2023-03-15T00:44:36;99136.81;;;2.68;100.00
24858;BME280;12935;50.782;6.074;2023-03-15T00:47:01;99133.34;;;2.67;100.00
24858;BME280;12935;50.782;6.074;2023-03-15T00:49:27;99130.25;;;2.85;100.00
24858;BME280;12935;50.782;6.074;2023-03-15T00:51:54;99135.63;;;3.00;100.00
24858;BME280;12935;50.782;6.074;2023-03-15T00:54:19;99136.56;;;3.08;100.00
24858;BME280;12935;50.782;6.074;2023-03-15T00:56:48;99140.84;;;3.09;100.00
24858;BME280;12935;50.782;6.074;2023-03-15T00:59:13;99136.59;;;2.92;100.00
24858;BME280;12935;50.782;6.074;2023-03-15T01:01:38;99137.81;;;2.95;100.00
24858;BME280;12935;50.782;6.074;2023-03-15T01:04:09;99141.22;;;2.92;100.00
24858;BME280;12935;50.782;6.074;2023-03-15T01:06:36;99146.63;;;2.92;100.00
24858;BME280;12935;50.782;6.074;2023-03-15T01:09:02;99153.41;;;2.86;100.00
24858;BME280;12935;50.782;6.074;2023-03-15T01:11:27;99151.78;;;2.81;100.00
24858;BME280;12935;50.782;6.074;2023-03-15T01:13:55;99151.44;;;2.83;100.00
24858;BME280;12935;50.782;6.074;2023-03-15T01:16:21;99155.88;;;2.75;100.00
24858;BME280;12935;50.782;6.074;2023-03-15T01:18:46;99153.78;;;2.68;100.00
24858;BME280;12935;50.782;6.074;2023-03-15T01:21:13;99158.75;;;2.82;100.00
24858;BME280;12935;50.782;6.074;2023-03-15T01:23:39;99143.81;;;3.04;100.00
24858;BME280;12935;50.782;6.074;2023-03-15T01:26:06;99144.13;;;2.83;100.00
24858;BME280;12935;50.782;6.074;2023-03-15T01:28:32;99132.97;;;2.69;100.00
24858;BME280;12935;50.782;6.074;2023-03-15T01:30:57;99152.03;;;2.60;100.00
24858;BME280;12935;50.782;6.074;2023-03-15T01:33:23;99155.34;;;2.54;100.00
24858;BME280;12935;50.782;6.074;2023-03-15T01:35:57;99167.69;;;2.55;100.00
24858;BME280;12935;50.782;6.074;2023-03-15T01:38:23;99188.03;;;2.52;100.00
24858;BME280;12935;50.782;6.074;2023-03-15T01:40:49;99194.06;;;2.45;100.00
24858;BME280;12935;50.782;6.074;2023-03-15T01:43:17;99201.09;;;2.34;100.00
24858;BME280;12935;50.782;6.074;2023-03-15T01:48:42;99201.03;;;2.03;100.00
24858;BME280;12935;50.782;6.074;2023-03-15T01:51:28;99209.41;;;1.86;100.00
24858;BME280;12935;50.782;6.074;2023-03-15T01:54:03;99213.22;;;1.85;100.00
24858;BME280;12935;50.782;6.074;2023-03-15T01:56:31;99204.34;;;1.56;100.00
24858;BME280;12935;50.782;6.074;2023-03-15T01:58:59;99204.28;;;1.40;100.00
24858;BME280;12935;50.782;6.074;2023-03-15T02:05:01;99180.97;;;1.60;100.00
24858;BME280;12935;50.782;6.074;2023-03-15T02:07:31;99181.00;;;1.48;100.00
24858;BME280;12935;50.782;6.074;2023-03-15T02:12:33;99178.25;;;1.32;100.00
24858;BME280;12935;50.782;6.074;2023-03-15T02:15:02;99180.84;;;1.17;100.00
24858;BME280;12935;50.782;6.074;2023-03-15T02:17:34;99182.31;;;1.14;100.00
24858;BME280;12935;50.782;6.074;2023-03-15T02:22:59;99186.81;;;1.22;100.00
24858;BME280;12935;50.782;6.074;2023-03-15T02:28:01;99191.94;;;1.15;100.00
24858;BME280;12935;50.782;6.074;2023-03-15T02:30:27;99187.16;;;1.09;100.00
24858;BME280;12935;50.782;6.074;2023-03-15T02:32:52;99188.63;;;1.06;100.00
24858;BME280;12935;50.782;6.074;2023-03-15T02:35:29;99192.41;;;1.05;100.00
24858;BME280;12935;50.782;6.074;2023-03-15T02:37:55;99192.41;;;1.05;100.00
24858;BME280;12935;50.782;6.074;2023-03-15T02:40:24;99186.38;;;1.08;100.00
24858;BME280;12935;50.782;6.074;2023-03-15T02:42:56;99178.97;;;1.05;100.00
24858;BME280;12935;50.782;6.074;2023-03-15T02:45:24;99181.63;;;1.17;100.00
24858;BME280;12935;50.782;6.074;2023-03-15T02:47:50;99178.63;;;1.07;100.00
24858;BME280;12935;50.782;6.074;2023-03-15T02:50:16;99185.47;;;1.04;100.00
24858;BME280;12935;50.782;6.074;2023-03-15T02:52:41;99182.56;;;1.09;100.00
24858;BME280;12935;50.782;6.074;2023-03-15T02:55:07;99186.94;;;1.01;100.00
24858;BME280;12935;50.782;6.074;2023-03-15T02:57:32;99187.03;;;1.05;100.00
24858;BME280;12935;50.782;6.074;2023-03-15T02:59:57;99188.63;;;1.06;100.00
24858;BME280;12935;50.782;6.074;2023-03-15T03:02:24;99182.28;;;1.26;100.00
24858;BME280;12935;50.782;6.074;2023-03-15T03:04:50;99182.81;;;1.44;100.00
24858;BME280;12935;50.782;6.074;2023-03-15T03:07:17;99183.59;;;1.45;100.00
24858;BME280;12935;50.782;6.074;2023-03-15T03:09:42;99189.44;;;1.47;100.00
24858;BME280;12935;50.782;6.074;2023-03-15T03:12:07;99194.38;;;1.45;100.00
24858;BME280;12935;50.782;6.074;2023-03-15T03:14:33;99200.31;;;1.50;100.00
24858;BME280;12935;50.782;6.074;2023-03-15T03:16:58;99209.72;;;1.44;100.00
24858;BME280;12935;50.782;6.074;2023-03-15T03:19:23;99205.47;;;1.43;100.00
24858;BME280;12935;50.782;6.074;2023-03-15T03:21:50;99197.06;;;1.45;100.00
24858;BME280;12935;50.782;6.074;2023-03-15T03:24:17;99207.72;;;1.53;100.00
24858;BME280;12935;50.782;6.074;2023-03-15T03:26:43;99209.75;;;1.32;100.00
24858;BME280;12935;50.782;6.074;2023-03-15T03:29:12;99216.59;;;1.42;100.00
24858;BME280;12935;50.782;6.074;2023-03-15T03:31:41;99212.34;;;1.28;100.00
24858;BME280;12935;50.782;6.074;2023-03-15T03:34:06;99218.50;;;1.29;100.00
24858;BME280;12935;50.782;6.074;2023-03-15T03:36:33;99231.84;;;1.37;100.00
24858;BME280;12935;50.782;6.074;2023-03-15T03:38:58;99229.16;;;1.37;100.00
24858;BME280;12935;50.782;6.074;2023-03-15T03:41:24;99230.06;;;1.29;100.00
24858;BME280;12935;50.782;6.074;2023-03-15T03:43:49;99227.69;;;1.28;100.00
24858;BME280;12935;50.782;6.074;2023-03-15T03:46:15;99236.69;;;1.32;100.00
24858;BME280;12935;50.782;6.074;2023-03-15T03:48:40;99239.47;;;1.35;100.00
24858;BME280;12935;50.782;6.074;2023-03-15T03:51:05;99243.53;;;1.42;100.00
24858;BME280;12935;50.782;6.074;2023-03-15T03:53:30;99240.72;;;1.38;100.00
24858;BME280;12935;50.782;6.074;2023-03-15T03:55:56;99250.38;;;1.39;100.00
24858;BME280;12935;50.782;6.074;2023-03-15T03:58:21;99250.91;;;1.32;100.00
24858;BME280;12935;50.782;6.074;2023-03-15T04:00:46;99254.63;;;1.28;100.00
24858;BME280;12935;50.782;6.074;2023-03-15T04:03:12;99266.88;;;1.25;100.00
24858;BME280;12935;50.782;6.074;2023-03-15T04:05:37;99263.81;;;1.27;100.00
24858;BME280;12935;50.782;6.074;2023-03-15T04:08:03;99269.56;;;1.25;100.00
24858;BME280;12935;50.782;6.074;2023-03-15T04:10:28;99270.22;;;1.22;100.00
24858;BME280;12935;50.782;6.074;2023-03-15T04:12:59;99276.72;;;1.21;100.00
24858;BME280;12935;50.782;6.074;2023-03-15T04:15:25;99279.41;;;1.21;100.00
24858;BME280;12935;50.782;6.074;2023-03-15T04:17:51;99284.78;;;1.33;100.00
24858;BME280;12935;50.782;6.074;2023-03-15T04:20:24;99286.50;;;1.26;100.00
24858;BME280;12935;50.782;6.074;2023-03-15T04:22:50;99289.38;;;1.21;100.00
24858;BME280;12935;50.782;6.074;2023-03-15T04:25:16;99288.72;;;1.24;100.00
24858;BME280;12935;50.782;6.074;2023-03-15T04:27:42;99290.97;;;1.22;100.00
24858;BME280;12935;50.782;6.074;2023-03-15T04:30:08;99292.63;;;1.14;100.00
24858;BME280;12935;50.782;6.074;2023-03-15T04:32:33;99294.00;;;1.20;100.00
24858;BME280;12935;50.782;6.074;2023-03-15T04:34:59;99302.63;;;1.26;100.00
24858;BME280;12935;50.782;6.074;2023-03-15T04:37:26;99308.56;;;1.31;100.00
24858;BME280;12935;50.782;6.074;2023-03-15T04:39:51;99306.09;;;1.26;100.00
24858;BME280;12935;50.782;6.074;2023-03-15T04:42:17;99312.94;;;1.24;100.00
24858;BME280;12935;50.782;6.074;2023-03-15T04:44:42;99311.72;;;1.21;100.00
24858;BME280;12935;50.782;6.074;2023-03-15T04:47:08;99305.19;;;1.22;100.00
24858;BME280;12935;50.782;6.074;2023-03-15T04:49:33;99307.56;;;1.24;100.00
24858;BME280;12935;50.782;6.074;2023-03-15T04:51:58;99310.78;;;1.29;100.00
24858;BME280;12935;50.782;6.074;2023-03-15T04:54:23;99304.19;;;1.27;100.00
24858;BME280;12935;50.782;6.074;2023-03-15T04:56:49;99318.41;;;1.27;100.00
24858;BME280;12935;50.782;6.074;2023-03-15T04:59:14;99300.47;;;1.31;100.00
24858;BME280;12935;50.782;6.074;2023-03-15T05:01:39;99308.88;;;1.30;100.00
24858;BME280;12935;50.782;6.074;2023-03-15T05:04:05;99305.88;;;1.31;100.00
24858;BME280;12935;50.782;6.074;2023-03-15T05:06:30;99309.78;;;1.34;100.00
24858;BME280;12935;50.782;6.074;2023-03-15T05:08:55;99322.13;;;1.35;100.00
24858;BME280;12935;50.782;6.074;2023-03-15T05:11:21;99320.44;;;1.30;100.00
24858;BME280;12935;50.782;6.074;2023-03-15T05:13:46;99327.41;;;1.31;100.00
24858;BME280;12935;50.782;6.074;2023-03-15T05:16:12;99324.91;;;1.26;100.00
24858;BME280;12935;50.782;6.074;2023-03-15T05:18:37;99325.63;;;1.23;100.00
24858;BME280;12935;50.782;6.074;2023-03-15T05:21:02;99334.56;;;1.27;100.00
24858;BME280;12935;50.782;6.074;2023-03-15T05:23:30;99341.06;;;1.26;100.00
24858;BME280;12935;50.782;6.074;2023-03-15T05:25:58;99347.34;;;1.30;100.00
24858;BME280;12935;50.782;6.074;2023-03-15T05:28:24;99355.66;;;1.25;100.00
24858;BME280;12935;50.782;6.074;2023-03-15T05:30:50;99358.56;;;1.20;100.00
24858;BME280;12935;50.782;6.074;2023-03-15T05:33:16;99359.22;;;1.17;100.00
24858;BME280;12935;50.782;6.074;2023-03-15T05:35:42;99368.31;;;1.13;100.00
24858;BME280;12935;50.782;6.074;2023-03-15T05:38:08;99368.63;;;1.11;100.00
24858;BME280;12935;50.782;6.074;2023-03-15T05:40:39;99368.19;;;1.09;100.00
24858;BME280;12935;50.782;6.074;2023-03-15T05:43:04;99365.38;;;1.05;100.00
24858;BME280;12935;50.782;6.074;2023-03-15T05:45:29;99362.81;;;1.09;100.00
24858;BME280;12935;50.782;6.074;2023-03-15T05:47:55;99367.09;;;1.10;100.00
24858;BME280;12935;50.782;6.074;2023-03-15T05:50:20;99365.84;;;1.08;100.00
24858;BME280;12935;50.782;6.074;2023-03-15T05:52:46;99367.09;;;1.10;100.00
24858;BME280;12935;50.782;6.074;2023-03-15T05:55:11;99367.09;;;1.10;100.00
24858;BME280;12935;50.782;6.074;2023-03-15T05:57:36;99379.28;;;1.08;100.00
24858;BME280;12935;50.782;6.074;2023-03-15T06:00:02;99379.19;;;1.16;100.00
24858;BME280;12935;50.782;6.074;2023-03-15T06:02:31;99392.63;;;1.16;100.00
24858;BME280;12935;50.782;6.074;2023-03-15T06:04:56;99384.22;;;1.18;100.00
24858;BME280;12935;50.782;6.074;2023-03-15T06:07:21;99385.69;;;1.15;100.00
24858;BME280;12935;50.782;6.074;2023-03-15T06:09:46;99397.50;;;1.23;100.00
24858;BME280;12935;50.782;6.074;2023-03-15T06:12:12;99398.50;;;1.30;100.00
24858;BME280;12935;50.782;6.074;2023-03-15T06:14:37;99394.81;;;1.35;100.00
24858;BME280;12935;50.782;6.074;2023-03-15T06:17:02;99409.38;;;1.34;100.00
24858;BME280;12935;50.782;6.074;2023-03-15T06:19:28;99406.03;;;1.37;100.00
24858;BME280;12935;50.782;6.074;2023-03-15T06:21:53;99406.81;;;1.62;100.00
24858;BME280;12935;50.782;6.074;2023-03-15T06:24:18;99413.56;;;1.56;100.00
24858;BME280;12935;50.782;6.074;2023-03-15T06:26:44;99407.41;;;1.55;100.00
24858;BME280;12935;50.782;6.074;2023-03-15T06:29:09;99412.88;;;1.59;100.00
24858;BME280;12935;50.782;6.074;2023-03-15T06:31:34;99425.47;;;1.55;100.00
24858;BME280;12935;50.782;6.074;2023-03-15T06:33:59;99422.06;;;1.58;100.00
24858;BME280;12935;50.782;6.074;2023-03-15T06:36:25;99432.09;;;1.57;100.00
24858;BME280;12935;50.782;6.074;2023-03-15T06:38:51;99421.97;;;1.54;100.00
24858;BME280;12935;50.782;6.074;2023-03-15T06:41:18;99434.22;;;1.64;100.00
24858;BME280;12935;50.782;6.074;2023-03-15T06:43:44;99431.50;;;1.64;100.00
24858;BME280;12935;50.782;6.074;2023-03-15T06:46:09;99439.13;;;1.62;100.00
24858;BME280;12935;50.782;6.074;2023-03-15T06:48:34;99443.00;;;1.73;100.00
24858;BME280;12935;50.782;6.074;2023-03-15T06:51:00;99452.63;;;1.74;100.00
24858;BME280;12935;50.782;6.074;2023-03-15T06:53:25;99450.72;;;1.74;100.00
24858;BME280;12935;50.782;6.074;2023-03-15T06:55:50;99456.34;;;1.69;100.00
24858;BME280;12935;50.782;6.074;2023-03-15T06:58:16;99462.19;;;1.71;100.00
24858;BME280;12935;50.782;6.074;2023-03-15T07:00:41;99465.06;;;1.66;100.00
24858;BME280;12935;50.782;6.074;2023-03-15T07:03:08;99468.22;;;1.68;100.00
24858;BME280;12935;50.782;6.074;2023-03-15T07:05:34;99477.97;;;1.61;100.00
24858;BME280;12935;50.782;6.074;2023-03-15T07:07:59;99479.88;;;1.60;100.00
24858;BME280;12935;50.782;6.074;2023-03-15T07:10:25;99489.06;;;1.59;100.00
24858;BME280;12935;50.782;6.074;2023-03-15T07:12:50;99491.44;;;1.61;100.00
24858;BME280;12935;50.782;6.074;2023-03-15T07:15:15;99497.47;;;1.58;100.00
24858;BME280;12935;50.782;6.074;2023-03-15T07:17:41;99503.78;;;1.62;100.00
24858;BME280;12935;50.782;6.074;2023-03-15T07:20:06;99512.31;;;1.64;100.00
24858;BME280;12935;50.782;6.074;2023-03-15T07:22:32;99512.88;;;1.69;100.00
24858;BME280;12935;50.782;6.074;2023-03-15T07:24:58;99516.91;;;1.75;100.00
24858;BME280;12935;50.782;6.074;2023-03-15T07:27:23;99520.66;;;1.95;100.00
24858;BME280;12935;50.782;6.074;2023-03-15T07:29:48;99523.16;;;2.00;100.00
24858;BME280;12935;50.782;6.074;2023-03-15T07:32:14;99529.00;;;2.02;100.00
24858;BME280;12935;50.782;6.074;2023-03-15T07:34:39;99536.50;;;2.09;100.00
24858;BME280;12935;50.782;6.074;2023-03-15T07:37:05;99533.47;;;2.10;100.00
24858;BME280;12935;50.782;6.074;2023-03-15T07:39:30;99538.97;;;2.14;100.00
24858;BME280;12935;50.782;6.074;2023-03-15T07:41:57;99532.25;;;2.20;100.00
24858;BME280;12935;50.782;6.074;2023-03-15T07:44:23;99537.97;;;2.31;100.00
24858;BME280;12935;50.782;6.074;2023-03-15T07:46:49;99542.03;;;2.49;100.00
24858;BME280;12935;50.782;6.074;2023-03-15T07:49:15;99538.63;;;2.40;100.00
24858;BME280;12935;50.782;6.074;2023-03-15T07:51:40;99550.47;;;2.35;100.00
24858;BME280;12935;50.782;6.074;2023-03-15T07:54:06;99552.03;;;2.49;100.00
24858;BME280;12935;50.782;6.074;2023-03-15T07:56:31;99556.63;;;2.48;100.00
24858;BME280;12935;50.782;6.074;2023-03-15T07:58:57;99558.75;;;2.55;100.00
24858;BME280;12935;50.782;6.074;2023-03-15T08:01:22;99568.53;;;2.47;100.00
24858;BME280;12935;50.782;6.074;2023-03-15T08:03:47;99575.16;;;2.50;100.00
24858;BME280;12935;50.782;6.074;2023-03-15T08:06:13;99575.81;;;2.59;100.00
24858;BME280;12935;50.782;6.074;2023-03-15T08:08:38;99585.81;;;2.58;100.00
24858;BME280;12935;50.782;6.074;2023-03-15T08:11:04;99592.78;;;2.71;100.00
24858;BME280;12935;50.782;6.074;2023-03-15T08:13:30;99592.00;;;2.83;100.00
24858;BME280;12935;50.782;6.074;2023-03-15T08:15:55;99599.66;;;2.81;100.00
24858;BME280;12935;50.782;6.074;2023-03-15T08:18:20;99601.31;;;2.86;100.00
24858;BME280;12935;50.782;6.074;2023-03-15T08:20:46;99601.06;;;3.03;100.00
24858;BME280;12935;50.782;6.074;2023-03-15T08:23:11;99605.97;;;3.25;100.00
24858;BME280;12935;50.782;6.074;2023-03-15T08:25:40;99610.25;;;3.26;100.00
24858;BME280;12935;50.782;6.074;2023-03-15T08:28:06;99616.19;;;3.32;100.00
24858;BME280;12935;50.782;6.074;2023-03-15T08:30:31;99618.34;;;3.26;100.00
24858;BME280;12935;50.782;6.074;2023-03-15T08:32:57;99631.97;;;3.30;100.00
24858;BME280;12935;50.782;6.074;2023-03-15T08:35:22;99631.34;;;3.36;100.00
24858;BME280;12935;50.782;6.074;2023-03-15T08:37:48;99640.06;;;3.30;100.00
24858;BME280;12935;50.782;6.074;2023-03-15T08:40:17;99642.38;;;3.43;100.00
24858;BME280;12935;50.782;6.074;2023-03-15T08:42:49;99649.69;;;3.43;100.00
24858;BME280;12935;50.782;6.074;2023-03-15T08:45:15;99646.09;;;3.39;100.00
24858;BME280;12935;50.782;6.074;2023-03-15T08:47:40;99655.75;;;3.52;100.00
24858;BME280;12935;50.782;6.074;2023-03-15T08:50:09;99651.00;;;3.49;100.00
24858;BME280;12935;50.782;6.074;2023-03-15T08:52:35;99650.44;;;3.56;100.00
24858;BME280;12935;50.782;6.074;2023-03-15T08:55:01;99653.63;;;3.45;100.00
24858;BME280;12935;50.782;6.074;2023-03-15T08:57:28;99644.88;;;3.64;100.00
24858;BME280;12935;50.782;6.074;2023-03-15T08:59:54;99657.88;;;3.59;100.00
24858;BME280;12935;50.782;6.074;2023-03-15T09:02:20;99663.63;;;3.57;100.00
24858;BME280;12935;50.782;6.074;2023-03-15T09:04:47;99670.03;;;3.52;100.00
24858;BME280;12935;50.782;6.074;2023-03-15T09:07:13;99672.50;;;3.85;100.00
24858;BME280;12935;50.782;6.074;2023-03-15T09:09:39;99677.22;;;3.88;100.00
24858;BME280;12935;50.782;6.074;2023-03-15T09:12:05;99677.22;;;3.88;100.00
24858;BME280;12935;50.782;6.074;2023-03-15T09:14:30;99681.94;;;4.19;100.00
24858;BME280;12935;50.782;6.074;2023-03-15T09:16:55;99676.66;;;4.11;100.00
24858;BME280;12935;50.782;6.074;2023-03-15T09:19:20;99688.28;;;4.11;100.00
24858;BME280;12935;50.782;6.074;2023-03-15T09:21:46;99692.91;;;4.27;100.00
24858;BME280;12935;50.782;6.074;2023-03-15T09:24:11;99692.31;;;4.17;100.00
24858;BME280;12935;50.782;6.074;2023-03-15T09:26:37;99695.91;;;4.21;100.00
24858;BME280;12935;50.782;6.074;2023-03-15T09:29:02;99695.56;;;4.23;100.00
24858;BME280;12935;50.782;6.074;2023-03-15T09:31:28;99693.88;;;4.18;100.00
24858;BME280;12935;50.782;6.074;2023-03-15T09:33:53;99705.88;;;4.49;100.00
24858;BME280;12935;50.782;6.074;2023-03-15T09:36:18;99707.56;;;4.53;100.00
24858;BME280;12935;50.782;6.074;2023-03-15T09:38:44;99704.41;;;4.67;100.00
24858;BME280;12935;50.782;6.074;2023-03-15T09:41:27;99709.13;;;4.70;100.00
24858;BME280;12935;50.782;6.074;2023-03-15T09:43:58;99708.78;;;4.56;100.00
24858;BME280;12935;50.782;6.074;2023-03-15T09:46:29;99711.31;;;4.80;100.00
24858;BME280;12935;50.782;6.074;2023-03-15T09:49:58;99720.53;;;5.26;100.00
24858;BME280;12935;50.782;6.074;2023-03-15T09:52:20;99713.94;;;5.43;100.00
24858;BME280;12935;50.782;6.074;2023-03-15T09:54:57;99724.66;;;5.90;100.00
24858;BME280;12935;50.782;6.074;2023-03-15T09:57:35;99712.06;;;6.21;100.00
24858;BME280;12935;50.782;6.074;2023-03-15T10:00:04;99710.75;;;6.76;100.00
24858;BME280;12935;50.782;6.074;2023-03-15T10:02:42;99701.56;;;7.07;100.00
24858;BME280;12935;50.782;6.074;2023-03-15T10:05:17;99705.84;;;7.64;100.00
24858;BME280;12935;50.782;6.074;2023-03-15T10:07:44;99693.78;;;7.62;100.00
24858;BME280;12935;50.782;6.074;2023-03-15T10:10:24;99699.66;;;8.31;100.00
24858;BME280;12935;50.782;6.074;2023-03-15T10:13:12;99696.22;;;8.78;100.00
24858;BME280;12935;50.782;6.074;2023-03-15T10:16:03;99699.41;;;9.38;100.00
24858;BME280;12935;50.782;6.074;2023-03-15T10:18:49;99702.47;;;8.82;98.42
24858;BME280;12935;50.782;6.074;2023-03-15T10:21:39;99699.38;;;8.39;100.00
24858;BME280;12935;50.782;6.074;2023-03-15T10:24:17;99705.88;;;9.20;98.59
24858;BME280;12935;50.782;6.074;2023-03-15T10:26:43;99717.09;;;9.07;96.57
24858;BME280;12935;50.782;6.074;2023-03-15T10:29:13;99710.63;;;9.26;97.63
24858;BME280;12935;50.782;6.074;2023-03-15T10:31:41;99704.84;;;8.87;95.65
24858;BME280;12935;50.782;6.074;2023-03-15T10:34:09;99706.53;;;9.57;98.51
24858;BME280;12935;50.782;6.074;2023-03-15T10:36:35;99707.66;;;8.94;88.89
24858;BME280;12935;50.782;6.074;2023-03-15T10:39:00;99702.22;;;8.94;87.03
24858;BME280;12935;50.782;6.074;2023-03-15T10:41:46;99702.75;;;9.87;92.50
24858;BME280;12935;50.782;6.074;2023-03-15T10:44:21;99705.31;;;10.45;85.58
24858;BME280;12935;50.782;6.074;2023-03-15T10:47:03;99704.81;;;10.14;80.93
24858;BME280;12935;50.782;6.074;2023-03-15T10:49:35;99712.09;;;9.17;82.05
24858;BME280;12935;50.782;6.074;2023-03-15T10:52:01;99704.38;;;8.34;83.74
24858;BME280;12935;50.782;6.074;2023-03-15T10:54:27;99698.53;;;8.76;84.13
24858;BME280;12935;50.782;6.074;2023-03-15T10:57:02;99704.22;;;9.66;78.22
24858;BME280;12935;50.782;6.074;2023-03-15T10:59:58;99711.16;;;10.36;75.80
24858;BME280;12935;50.782;6.074;2023-03-15T11:02:24;99711.19;;;11.18;75.04
24858;BME280;12935;50.782;6.074;2023-03-15T11:05:09;99719.69;;;11.91;70.98
24858;BME280;12935;50.782;6.074;2023-03-15T11:07:52;99718.94;;;11.76;66.69
24858;BME280;12935;50.782;6.074;2023-03-15T11:10:23;99722.94;;;11.01;69.18
24858;BME280;12935;50.782;6.074;2023-03-15T11:12:49;99728.22;;;10.15;72.07
24858;BME280;12935;50.782;6.074;2023-03-15T11:15:15;99733.94;;;9.85;71.55
24858;BME280;12935;50.782;6.074;2023-03-15T11:17:47;99743.56;;;9.58;72.87
24858;BME280;12935;50.782;6.074;2023-03-15T11:20:31;99737.00;;;9.15;73.90
24858;BME280;12935;50.782;6.074;2023-03-15T11:23:00;99739.16;;;7.84;85.29
24858;BME280;12935;50.782;6.074;2023-03-15T11:25:30;99736.91;;;9.01;85.77
24858;BME280;12935;50.782;6.074;2023-03-15T11:27:56;99740.81;;;9.55;79.13
24858;BME280;12935;50.782;6.074;2023-03-15T11:30:26;99743.84;;;9.46;81.26
24858;BME280;12935;50.782;6.074;2023-03-15T11:32:52;99752.44;;;8.56;79.61
24858;BME280;12935;50.782;6.074;2023-03-15T11:35:37;99748.94;;;8.96;78.38
24858;BME280;12935;50.782;6.074;2023-03-15T11:38:12;99741.28;;;8.68;79.33
24858;BME280;12935;50.782;6.074;2023-03-15T11:40:41;99750.25;;;8.35;79.95
24858;BME280;12935;50.782;6.074;2023-03-15T11:43:17;99756.44;;;7.72;82.40
24858;BME280;12935;50.782;6.074;2023-03-15T11:45:57;99758.72;;;7.40;85.27
24858;BME280;12935;50.782;6.074;2023-03-15T11:48:46;99771.03;;;7.08;86.75
24858;BME280;12935;50.782;6.074;2023-03-15T11:51:12;99774.81;;;6.81;91.74
24858;BME280;12935;50.782;6.074;2023-03-15T11:59:30;99767.63;;;7.37;89.45
24858;BME280;12935;50.782;6.074;2023-03-15T12:02:05;99766.16;;;8.63;86.16
24858;BME280;12935;50.782;6.074;2023-03-15T12:04:47;99764.38;;;9.26;76.18
24858;BME280;12935;50.782;6.074;2023-03-15T12:17:57;99762.78;;;10.84;64.52
24858;BME280;12935;50.782;6.074;2023-03-15T12:20:35;99763.16;;;11.04;60.63
24858;BME280;12935;50.782;6.074;2023-03-15T12:25:38;99760.44;;;11.29;57.41
24858;BME280;12935;50.782;6.074;2023-03-15T12:28:09;99761.97;;;11.37;54.97
24858;BME280;12935;50.782;6.074;2023-03-15T12:30:44;99761.19;;;11.54;55.75
24858;BME280;12935;50.782;6.074;2023-03-15T12:33:20;99756.50;;;11.58;52.33
24858;BME280;12935;50.782;6.074;2023-03-15T12:35:47;99746.69;;;11.71;54.16
24858;BME280;12935;50.782;6.074;2023-03-15T12:38:19;99751.84;;;13.60;55.80
24858;BME280;12935;50.782;6.074;2023-03-15T12:40:56;99743.88;;;14.07;52.19
24858;BME280;12935;50.782;6.074;2023-03-15T12:45:59;99748.84;;;12.95;50.76
24858;BME280;12935;50.782;6.074;2023-03-15T12:48:26;99754.16;;;12.61;51.22
24858;BME280;12935;50.782;6.074;2023-03-15T12:50:54;99742.31;;;14.05;52.11
24858;BME280;12935;50.782;6.074;2023-03-15T12:53:35;99744.22;;;12.85;46.28
24858;BME280;12935;50.782;6.074;2023-03-15T12:59:40;99738.13;;;11.62;47.87
24858;BME280;12935;50.782;6.074;2023-03-15T13:02:21;99747.50;;;11.61;50.61
24858;BME280;12935;50.782;6.074;2023-03-15T13:04:48;99738.53;;;10.89;51.07
24858;BME280;12935;50.782;6.074;2023-03-15T13:07:29;99747.50;;;11.54;53.54
24858;BME280;12935;50.782;6.074;2023-03-15T13:13:05;99746.63;;;9.02;53.65
24858;BME280;12935;50.782;6.074;2023-03-15T13:15:58;99743.75;;;8.81;55.03
24858;BME280;12935;50.782;6.074;2023-03-15T13:18:22;99745.91;;;9.63;56.17
24858;BME280;12935;50.782;6.074;2023-03-15T13:23:31;99736.69;;;9.89;56.03
24858;BME280;12935;50.782;6.074;2023-03-15T13:28:38;99734.91;;;8.98;56.57
24858;BME280;12935;50.782;6.074;2023-03-15T13:31:16;99735.50;;;9.21;56.45
24858;BME280;12935;50.782;6.074;2023-03-15T13:33:48;99740.47;;;9.08;57.36
24858;BME280;12935;50.782;6.074;2023-03-15T13:36:18;99733.88;;;8.69;56.65
24858;BME280;12935;50.782;6.074;2023-03-15T13:38:53;99734.88;;;8.91;57.62
24858;BME280;12935;50.782;6.074;2023-03-15T13:41:28;99727.63;;;12.48;54.28
24858;BME280;12935;50.782;6.074;2023-03-15T13:43:56;99732.41;;;14.46;44.71
24858;BME280;12935;50.782;6.074;2023-03-15T13:46:24;99726.59;;;15.40;43.16
24858;BME280;12935;50.782;6.074;2023-03-15T13:48:52;99728.25;;;17.05;40.45
24858;BME280;12935;50.782;6.074;2023-03-15T13:51:31;99734.13;;;16.55;37.87
24858;BME280;12935;50.782;6.074;2023-03-15T13:54:04;99740.47;;;13.17;42.77
24858;BME280;12935;50.782;6.074;2023-03-15T13:56:33;99752.28;;;14.84;41.39